Brightway — 9V8755 — position and weather

sailwx.info

Track history (hours):
 
Tides and Currents Weather Stations Pressure Air Temp Water Temp Dewpoint Dewpoint Depression Visibility Wind Speed Wind Dir Waves Ship Positions

Brightway

Last reported at 2014-Aug-21 11:33 UTC. Time now 2014-Aug-21 12:14 UTC.
Position N 32°10' E 029°29'.

Length 274 m; draft 15.9 m.

Type: Tanker. MMSI: 566422000.

Date/timePositionNaut miles runAvg speedWind from/ knotsBaromVisibWave heightAir tempDewpointWater temp
2014-Aug-21 11:33N 32°10' E 029°29'1111.2
2014-Aug-21 10:33N 32°10' E 029°16'1211.0
2014-Aug-21 09:27N 32°10' E 029°02'1314.0
2014-Aug-21 08:33N 32°10' E 028°46'  
2014-Aug-15 16:10N 32°04' E 023°60'0 0.1
2014-Aug-15 15:33N 32°04' E 024°00'2 1.9
2014-Aug-15 14:33N 32°04' E 024°02'1 0.1
2014-Aug-15 09:25N 32°04' E 024°03'0 0.0
2014-Aug-15 00:12N 32°04' E 024°03'207 9.4
2014-Aug-14 02:12N 35°28' E 023°21'711.6
2014-Aug-14 01:33N 35°36' E 023°23'2311.7
2014-Aug-13 23:33N 35°59' E 023°29'3411.5
2014-Aug-13 20:33N 36°32' E 023°38'1111.3
2014-Aug-13 19:33N 36°43' E 023°39'1212.1
2014-Aug-13 18:33N 36°55' E 023°40'1111.4
2014-Aug-13 17:33N 37°07' E 023°41'1211.6
2014-Aug-13 16:33N 37°19' E 023°42'1111.1
2014-Aug-13 15:33N 37°30' E 023°42'1110.9
2014-Aug-13 14:33N 37°40' E 023°42'1212.0
2014-Aug-13 13:34N 37°49' E 023°32'1010.1
2014-Aug-13 12:33N 37°56' E 023°22'2 2.0
2014-Aug-13 11:33N 37°58' E 023°23'1 0.2
2014-Aug-13 08:18N 37°58' E 023°23'0 0.0
2014-Aug-12 16:30N 37°58' E 023°23'0 0.0
2014-Aug-12 08:03N 37°58' E 023°23'0 0.8
2014-Aug-12 07:34N 37°58' E 023°23'2 2.1
2014-Aug-12 06:33N 37°56' E 023°22'2 2.3
2014-Aug-12 05:34N 37°54' E 023°20'0 0.5
2014-Aug-12 04:33N 37°55' E 023°20'0 0.2
2014-Aug-12 03:21N 37°55' E 023°20'0 0.3
2014-Aug-12 02:33N 37°54' E 023°20'0 0.3
2014-Aug-12 01:33N 37°54' E 023°20'0 0.2
2014-Aug-12 00:34N 37°54' E 023°20'0 0.4
2014-Aug-11 23:34N 37°54' E 023°20'8 7.6
2014-Aug-11 22:34N 37°51' E 023°29'9 8.8
2014-Aug-11 21:34N 37°50' E 023°40'1212.3
2014-Aug-11 20:34N 37°39' E 023°46'1212.2
2014-Aug-11 19:34N 37°27' E 023°51'1211.9
2014-Aug-11 18:33N 37°16' E 023°56'1212.0
2014-Aug-11 17:34N 37°05' E 024°00'1212.0
2014-Aug-11 16:33N 36°53' E 024°06'1212.2
2014-Aug-11 15:33N 36°42' E 024°11'1211.7
2014-Aug-11 14:34N 36°32' E 024°19'1212.4
2014-Aug-11 13:33N 36°25' E 024°32'1211.7
2014-Aug-11 12:33N 36°19' E 024°45'1211.5
2014-Aug-11 11:33N 36°13' E 024°57'  
Track history (hours):
 
Tides and Currents Weather Stations Pressure Air Temp Water Temp Dewpoint Dewpoint Depression Visibility Wind Speed Wind Dir Waves Ship Positions

Brightway

Last reported at 2014-Aug-21 11:33 UTC. Time now 2014-Aug-21 12:14 UTC.
Position N 32°10' E 029°29'.

Length 274 m; draft 15.9 m.

Type: Tanker. MMSI: 566422000.

Date/timePositionNaut miles runAvg speedWind from/ knotsBaromVisibWave heightAir tempDewpointWater temp
2014-Aug-21 11:33N 32°10' E 029°29'1111.2
2014-Aug-21 10:33N 32°10' E 029°16'1211.0
2014-Aug-21 09:27N 32°10' E 029°02'1314.0
2014-Aug-21 08:33N 32°10' E 028°46'  
2014-Aug-15 16:10N 32°04' E 023°60'0 0.1
2014-Aug-15 15:33N 32°04' E 024°00'2 1.9
2014-Aug-15 14:33N 32°04' E 024°02'1 0.1
2014-Aug-15 09:25N 32°04' E 024°03'0 0.0
2014-Aug-15 00:12N 32°04' E 024°03'207 9.4
2014-Aug-14 02:12N 35°28' E 023°21'711.6
2014-Aug-14 01:33N 35°36' E 023°23'2311.7
2014-Aug-13 23:33N 35°59' E 023°29'3411.5
2014-Aug-13 20:33N 36°32' E 023°38'1111.3
2014-Aug-13 19:33N 36°43' E 023°39'1212.1
2014-Aug-13 18:33N 36°55' E 023°40'1111.4
2014-Aug-13 17:33N 37°07' E 023°41'1211.6
2014-Aug-13 16:33N 37°19' E 023°42'1111.1
2014-Aug-13 15:33N 37°30' E 023°42'1110.9
2014-Aug-13 14:33N 37°40' E 023°42'1212.0
2014-Aug-13 13:34N 37°49' E 023°32'1010.1
2014-Aug-13 12:33N 37°56' E 023°22'2 2.0
2014-Aug-13 11:33N 37°58' E 023°23'1 0.2
2014-Aug-13 08:18N 37°58' E 023°23'0 0.0
2014-Aug-12 16:30N 37°58' E 023°23'0 0.0
2014-Aug-12 08:03N 37°58' E 023°23'0 0.8
2014-Aug-12 07:34N 37°58' E 023°23'2 2.1
2014-Aug-12 06:33N 37°56' E 023°22'2 2.3
2014-Aug-12 05:34N 37°54' E 023°20'0 0.5
2014-Aug-12 04:33N 37°55' E 023°20'0 0.2
2014-Aug-12 03:21N 37°55' E 023°20'0 0.3
2014-Aug-12 02:33N 37°54' E 023°20'0 0.3
2014-Aug-12 01:33N 37°54' E 023°20'0 0.2
2014-Aug-12 00:34N 37°54' E 023°20'0 0.4
2014-Aug-11 23:34N 37°54' E 023°20'8 7.6
2014-Aug-11 22:34N 37°51' E 023°29'9 8.8
2014-Aug-11 21:34N 37°50' E 023°40'1212.3
2014-Aug-11 20:34N 37°39' E 023°46'1212.2
2014-Aug-11 19:34N 37°27' E 023°51'1211.9
2014-Aug-11 18:33N 37°16' E 023°56'1212.0
2014-Aug-11 17:34N 37°05' E 024°00'1212.0
2014-Aug-11 16:33N 36°53' E 024°06'1212.2
2014-Aug-11 15:33N 36°42' E 024°11'1211.7
2014-Aug-11 14:34N 36°32' E 024°19'1212.4
2014-Aug-11 13:33N 36°25' E 024°32'1211.7
2014-Aug-11 12:33N 36°19' E 024°45'1211.5
2014-Aug-11 11:33N 36°13' E 024°57'  

Dump ship's entire track history